sensor_id;sensor_type;location;lat;lon;timestamp;P1;durP1;ratioP1;P2;durP2;ratioP2
11618;SDS011;5865;48.776;9.280;2022-12-18T00:00:29;40.87;;;18.87;;
11618;SDS011;5865;48.776;9.280;2022-12-18T00:02:57;45.90;;;20.97;;
11618;SDS011;5865;48.776;9.280;2022-12-18T00:05:24;42.27;;;19.00;;
11618;SDS011;5865;48.776;9.280;2022-12-18T00:07:51;44.67;;;20.07;;
11618;SDS011;5865;48.776;9.280;2022-12-18T00:13:51;47.73;;;19.13;;
11618;SDS011;5865;48.776;9.280;2022-12-18T00:16:32;39.30;;;19.53;;
11618;SDS011;5865;48.776;9.280;2022-12-18T00:19:14;41.83;;;19.33;;
11618;SDS011;5865;48.776;9.280;2022-12-18T00:21:55;45.43;;;19.07;;
11618;SDS011;5865;48.776;9.280;2022-12-18T00:24:23;40.23;;;19.13;;
11618;SDS011;5865;48.776;9.280;2022-12-18T00:27:04;45.40;;;20.50;;
11618;SDS011;5865;48.776;9.280;2022-12-18T00:58:17;36.23;;;16.47;;
11618;SDS011;5865;48.776;9.280;2022-12-18T01:01:03;39.77;;;17.20;;
11618;SDS011;5865;48.776;9.280;2022-12-18T01:03:44;39.67;;;17.07;;
11618;SDS011;5865;48.776;9.280;2022-12-18T01:06:26;36.23;;;17.03;;
11618;SDS011;5865;48.776;9.280;2022-12-18T01:09:05;39.80;;;16.70;;
11618;SDS011;5865;48.776;9.280;2022-12-18T01:37:23;57.17;;;23.23;;
11618;SDS011;5865;48.776;9.280;2022-12-18T01:39:54;49.30;;;21.27;;
11618;SDS011;5865;48.776;9.280;2022-12-18T01:42:22;48.23;;;21.57;;
11618;SDS011;5865;48.776;9.280;2022-12-18T01:45:04;49.00;;;21.27;;
11618;SDS011;5865;48.776;9.280;2022-12-18T01:47:44;46.30;;;19.93;;
11618;SDS011;5865;48.776;9.280;2022-12-18T01:50:29;40.23;;;19.77;;
11618;SDS011;5865;48.776;9.280;2022-12-18T01:59:23;46.07;;;19.43;;
11618;SDS011;5865;48.776;9.280;2022-12-18T02:02:04;47.53;;;20.70;;
11618;SDS011;5865;48.776;9.280;2022-12-18T02:04:35;46.97;;;20.03;;
11618;SDS011;5865;48.776;9.280;2022-12-18T02:07:17;58.30;;;24.23;;
11618;SDS011;5865;48.776;9.280;2022-12-18T02:10:06;52.80;;;21.67;;
11618;SDS011;5865;48.776;9.280;2022-12-18T02:15:31;44.50;;;21.13;;
11618;SDS011;5865;48.776;9.280;2022-12-18T02:18:20;47.93;;;21.03;;
11618;SDS011;5865;48.776;9.280;2022-12-18T02:21:07;52.33;;;20.37;;
11618;SDS011;5865;48.776;9.280;2022-12-18T02:23:56;53.27;;;21.53;;
11618;SDS011;5865;48.776;9.280;2022-12-18T02:33:15;55.43;;;24.03;;
11618;SDS011;5865;48.776;9.280;2022-12-18T02:35:43;60.93;;;24.77;;
11618;SDS011;5865;48.776;9.280;2022-12-18T02:38:11;56.90;;;23.00;;
11618;SDS011;5865;48.776;9.280;2022-12-18T02:40:42;51.80;;;20.43;;
11618;SDS011;5865;48.776;9.280;2022-12-18T02:43:15;52.87;;;22.10;;
11618;SDS011;5865;48.776;9.280;2022-12-18T02:45:46;60.27;;;22.63;;
11618;SDS011;5865;48.776;9.280;2022-12-18T02:51:03;59.23;;;22.33;;
11618;SDS011;5865;48.776;9.280;2022-12-18T02:53:36;48.77;;;20.47;;
11618;SDS011;5865;48.776;9.280;2022-12-18T02:56:11;52.40;;;20.70;;
11618;SDS011;5865;48.776;9.280;2022-12-18T02:58:44;40.30;;;17.97;;
11618;SDS011;5865;48.776;9.280;2022-12-18T03:01:46;49.33;;;19.07;;
11618;SDS011;5865;48.776;9.280;2022-12-18T03:04:19;49.43;;;19.33;;
11618;SDS011;5865;48.776;9.280;2022-12-18T03:06:53;43.23;;;18.63;;
11618;SDS011;5865;48.776;9.280;2022-12-18T03:09:38;45.07;;;18.77;;
11618;SDS011;5865;48.776;9.280;2022-12-18T03:12:09;46.83;;;19.00;;
11618;SDS011;5865;48.776;9.280;2022-12-18T03:15:07;45.90;;;19.37;;
11618;SDS011;5865;48.776;9.280;2022-12-18T03:17:37;42.03;;;18.57;;
11618;SDS011;5865;48.776;9.280;2022-12-18T03:26:28;47.17;;;18.07;;
11618;SDS011;5865;48.776;9.280;2022-12-18T03:29:00;43.60;;;18.17;;
11618;SDS011;5865;48.776;9.280;2022-12-18T03:31:35;39.00;;;17.23;;
11618;SDS011;5865;48.776;9.280;2022-12-18T03:34:08;42.87;;;18.60;;
11618;SDS011;5865;48.776;9.280;2022-12-18T03:36:43;40.13;;;17.40;;
11618;SDS011;5865;48.776;9.280;2022-12-18T03:39:14;38.20;;;17.30;;
11618;SDS011;5865;48.776;9.280;2022-12-18T03:42:00;40.20;;;17.00;;
11618;SDS011;5865;48.776;9.280;2022-12-18T03:44:36;40.20;;;17.57;;
11618;SDS011;5865;48.776;9.280;2022-12-18T03:47:12;46.80;;;19.87;;
11618;SDS011;5865;48.776;9.280;2022-12-18T03:49:45;36.33;;;16.77;;
11618;SDS011;5865;48.776;9.280;2022-12-18T03:52:34;42.40;;;19.00;;
11618;SDS011;5865;48.776;9.280;2022-12-18T03:55:10;41.43;;;18.10;;
11618;SDS011;5865;48.776;9.280;2022-12-18T03:57:57;41.13;;;17.07;;
11618;SDS011;5865;48.776;9.280;2022-12-18T04:00:39;45.37;;;18.53;;
11618;SDS011;5865;48.776;9.280;2022-12-18T04:03:16;39.00;;;18.40;;
11618;SDS011;5865;48.776;9.280;2022-12-18T04:05:48;41.20;;;18.10;;
11618;SDS011;5865;48.776;9.280;2022-12-18T04:08:23;41.57;;;18.10;;
11618;SDS011;5865;48.776;9.280;2022-12-18T04:11:02;37.83;;;17.47;;
11618;SDS011;5865;48.776;9.280;2022-12-18T04:13:44;50.73;;;21.73;;
11618;SDS011;5865;48.776;9.280;2022-12-18T04:16:26;43.43;;;18.83;;
11618;SDS011;5865;48.776;9.280;2022-12-18T04:18:58;40.10;;;17.87;;
11618;SDS011;5865;48.776;9.280;2022-12-18T04:21:28;42.17;;;17.43;;
11618;SDS011;5865;48.776;9.280;2022-12-18T04:23:56;38.07;;;17.83;;
11618;SDS011;5865;48.776;9.280;2022-12-18T04:36:22;43.23;;;17.77;;
11618;SDS011;5865;48.776;9.280;2022-12-18T04:38:53;37.93;;;16.90;;
11618;SDS011;5865;48.776;9.280;2022-12-18T04:41:20;37.70;;;16.80;;
11618;SDS011;5865;48.776;9.280;2022-12-18T04:44:03;36.60;;;16.40;;
11618;SDS011;5865;48.776;9.280;2022-12-18T04:46:44;43.57;;;18.70;;
11618;SDS011;5865;48.776;9.280;2022-12-18T04:49:25;42.57;;;18.87;;
11618;SDS011;5865;48.776;9.280;2022-12-18T04:55:20;37.87;;;17.70;;
11618;SDS011;5865;48.776;9.280;2022-12-18T04:58:04;40.63;;;17.43;;
11618;SDS011;5865;48.776;9.280;2022-12-18T05:00:45;39.40;;;16.33;;
11618;SDS011;5865;48.776;9.280;2022-12-18T05:03:12;37.23;;;16.90;;
11618;SDS011;5865;48.776;9.280;2022-12-18T05:05:39;32.53;;;15.53;;
11618;SDS011;5865;48.776;9.280;2022-12-18T05:08:05;41.07;;;18.27;;
11618;SDS011;5865;48.776;9.280;2022-12-18T05:10:34;40.17;;;17.27;;
11618;SDS011;5865;48.776;9.280;2022-12-18T05:13:01;35.70;;;15.97;;
11618;SDS011;5865;48.776;9.280;2022-12-18T05:15:28;42.13;;;16.53;;
11618;SDS011;5865;48.776;9.280;2022-12-18T05:17:56;32.27;;;15.80;;
11618;SDS011;5865;48.776;9.280;2022-12-18T05:20:23;36.83;;;16.23;;
11618;SDS011;5865;48.776;9.280;2022-12-18T05:22:50;35.13;;;16.43;;
11618;SDS011;5865;48.776;9.280;2022-12-18T05:25:18;32.80;;;14.90;;
11618;SDS011;5865;48.776;9.280;2022-12-18T05:27:47;39.53;;;16.67;;
11618;SDS011;5865;48.776;9.280;2022-12-18T05:30:14;36.83;;;16.00;;
11618;SDS011;5865;48.776;9.280;2022-12-18T05:32:42;36.23;;;15.73;;
11618;SDS011;5865;48.776;9.280;2022-12-18T05:35:10;37.63;;;16.70;;
11618;SDS011;5865;48.776;9.280;2022-12-18T05:37:37;37.10;;;17.53;;
11618;SDS011;5865;48.776;9.280;2022-12-18T05:40:05;33.63;;;14.90;;
11618;SDS011;5865;48.776;9.280;2022-12-18T05:42:32;43.77;;;18.27;;
11618;SDS011;5865;48.776;9.280;2022-12-18T05:45:01;43.87;;;17.03;;
11618;SDS011;5865;48.776;9.280;2022-12-18T05:47:28;43.87;;;19.10;;
11618;SDS011;5865;48.776;9.280;2022-12-18T05:49:55;43.87;;;18.90;;
11618;SDS011;5865;48.776;9.280;2022-12-18T05:52:23;47.50;;;19.83;;
11618;SDS011;5865;48.776;9.280;2022-12-18T05:54:50;37.43;;;16.90;;
11618;SDS011;5865;48.776;9.280;2022-12-18T05:57:17;40.13;;;18.43;;
11618;SDS011;5865;48.776;9.280;2022-12-18T05:59:44;39.67;;;16.77;;
11618;SDS011;5865;48.776;9.280;2022-12-18T06:02:12;36.43;;;15.20;;
11618;SDS011;5865;48.776;9.280;2022-12-18T06:04:39;32.63;;;15.00;;
11618;SDS011;5865;48.776;9.280;2022-12-18T06:07:06;32.57;;;14.77;;
11618;SDS011;5865;48.776;9.280;2022-12-18T06:09:33;32.50;;;14.53;;
11618;SDS011;5865;48.776;9.280;2022-12-18T06:12:00;35.07;;;15.07;;
11618;SDS011;5865;48.776;9.280;2022-12-18T06:14:27;38.67;;;15.53;;
11618;SDS011;5865;48.776;9.280;2022-12-18T06:16:54;38.80;;;15.67;;
11618;SDS011;5865;48.776;9.280;2022-12-18T06:19:22;34.00;;;14.67;;
11618;SDS011;5865;48.776;9.280;2022-12-18T06:21:49;37.50;;;14.23;;
11618;SDS011;5865;48.776;9.280;2022-12-18T06:24:16;34.80;;;15.40;;
11618;SDS011;5865;48.776;9.280;2022-12-18T06:26:43;32.37;;;14.10;;
11618;SDS011;5865;48.776;9.280;2022-12-18T06:29:10;28.67;;;14.17;;
11618;SDS011;5865;48.776;9.280;2022-12-18T06:31:37;29.03;;;14.27;;
11618;SDS011;5865;48.776;9.280;2022-12-18T06:34:04;34.80;;;15.27;;
11618;SDS011;5865;48.776;9.280;2022-12-18T06:36:33;34.57;;;15.23;;
11618;SDS011;5865;48.776;9.280;2022-12-18T06:39:00;32.50;;;15.17;;
11618;SDS011;5865;48.776;9.280;2022-12-18T06:41:27;33.97;;;14.73;;
11618;SDS011;5865;48.776;9.280;2022-12-18T06:43:54;31.80;;;14.70;;
11618;SDS011;5865;48.776;9.280;2022-12-18T06:46:21;36.70;;;15.63;;
11618;SDS011;5865;48.776;9.280;2022-12-18T06:48:48;35.33;;;15.73;;
11618;SDS011;5865;48.776;9.280;2022-12-18T06:51:17;34.57;;;15.17;;
11618;SDS011;5865;48.776;9.280;2022-12-18T06:53:46;34.20;;;15.43;;
11618;SDS011;5865;48.776;9.280;2022-12-18T06:56:13;36.63;;;15.30;;
11618;SDS011;5865;48.776;9.280;2022-12-18T06:58:40;37.63;;;15.87;;
11618;SDS011;5865;48.776;9.280;2022-12-18T07:01:08;37.93;;;17.37;;
11618;SDS011;5865;48.776;9.280;2022-12-18T07:03:36;43.30;;;18.17;;
11618;SDS011;5865;48.776;9.280;2022-12-18T07:06:03;43.30;;;18.30;;
11618;SDS011;5865;48.776;9.280;2022-12-18T07:08:31;41.83;;;17.77;;
11618;SDS011;5865;48.776;9.280;2022-12-18T07:11:02;42.57;;;19.07;;
11618;SDS011;5865;48.776;9.280;2022-12-18T07:13:30;32.67;;;15.03;;
11618;SDS011;5865;48.776;9.280;2022-12-18T07:16:02;33.40;;;13.07;;
11618;SDS011;5865;48.776;9.280;2022-12-18T07:18:33;26.23;;;13.43;;
11618;SDS011;5865;48.776;9.280;2022-12-18T07:21:02;30.83;;;14.53;;
11618;SDS011;5865;48.776;9.280;2022-12-18T07:23:31;32.03;;;13.50;;
11618;SDS011;5865;48.776;9.280;2022-12-18T07:26:01;32.27;;;13.53;;
11618;SDS011;5865;48.776;9.280;2022-12-18T07:28:29;31.27;;;14.73;;
11618;SDS011;5865;48.776;9.280;2022-12-18T07:30:57;33.17;;;15.13;;
11618;SDS011;5865;48.776;9.280;2022-12-18T07:33:24;30.73;;;15.00;;
11618;SDS011;5865;48.776;9.280;2022-12-18T07:35:51;34.33;;;14.93;;
11618;SDS011;5865;48.776;9.280;2022-12-18T07:38:18;51.53;;;18.83;;
11618;SDS011;5865;48.776;9.280;2022-12-18T07:40:45;40.27;;;16.83;;
11618;SDS011;5865;48.776;9.280;2022-12-18T07:43:13;37.57;;;16.33;;
11618;SDS011;5865;48.776;9.280;2022-12-18T07:45:41;34.40;;;15.27;;
11618;SDS011;5865;48.776;9.280;2022-12-18T07:48:08;33.13;;;15.23;;
11618;SDS011;5865;48.776;9.280;2022-12-18T07:50:35;37.47;;;16.40;;
11618;SDS011;5865;48.776;9.280;2022-12-18T07:53:02;37.90;;;16.17;;
11618;SDS011;5865;48.776;9.280;2022-12-18T07:55:30;30.47;;;14.57;;
11618;SDS011;5865;48.776;9.280;2022-12-18T07:58:00;38.30;;;16.70;;
11618;SDS011;5865;48.776;9.280;2022-12-18T08:00:29;36.10;;;16.37;;
11618;SDS011;5865;48.776;9.280;2022-12-18T08:03:08;39.63;;;16.03;;
11618;SDS011;5865;48.776;9.280;2022-12-18T08:05:35;34.97;;;16.73;;
11618;SDS011;5865;48.776;9.280;2022-12-18T08:08:02;33.77;;;15.50;;
11618;SDS011;5865;48.776;9.280;2022-12-18T08:10:29;38.20;;;18.37;;
11618;SDS011;5865;48.776;9.280;2022-12-18T08:12:58;34.10;;;16.60;;
11618;SDS011;5865;48.776;9.280;2022-12-18T08:15:31;39.60;;;17.10;;
11618;SDS011;5865;48.776;9.280;2022-12-18T08:17:58;41.43;;;18.10;;
11618;SDS011;5865;48.776;9.280;2022-12-18T08:20:28;39.00;;;16.97;;
11618;SDS011;5865;48.776;9.280;2022-12-18T08:23:00;34.73;;;17.43;;
11618;SDS011;5865;48.776;9.280;2022-12-18T08:25:31;36.80;;;17.57;;
11618;SDS011;5865;48.776;9.280;2022-12-18T08:27:58;39.33;;;18.40;;
11618;SDS011;5865;48.776;9.280;2022-12-18T08:30:26;39.70;;;18.10;;
11618;SDS011;5865;48.776;9.280;2022-12-18T08:32:55;41.63;;;18.90;;
11618;SDS011;5865;48.776;9.280;2022-12-18T08:35:34;38.97;;;17.83;;
11618;SDS011;5865;48.776;9.280;2022-12-18T08:38:04;39.80;;;17.90;;
11618;SDS011;5865;48.776;9.280;2022-12-18T08:40:40;40.80;;;18.37;;
11618;SDS011;5865;48.776;9.280;2022-12-18T08:43:09;40.67;;;18.13;;
11618;SDS011;5865;48.776;9.280;2022-12-18T08:45:59;55.47;;;23.07;;
11618;SDS011;5865;48.776;9.280;2022-12-18T08:48:39;43.77;;;20.13;;
11618;SDS011;5865;48.776;9.280;2022-12-18T08:51:18;42.40;;;18.93;;
11618;SDS011;5865;48.776;9.280;2022-12-18T08:53:52;43.30;;;18.60;;
11618;SDS011;5865;48.776;9.280;2022-12-18T08:57:02;43.30;;;18.40;;
11618;SDS011;5865;48.776;9.280;2022-12-18T08:59:31;45.50;;;19.80;;
11618;SDS011;5865;48.776;9.280;2022-12-18T09:02:10;49.17;;;21.33;;
11618;SDS011;5865;48.776;9.280;2022-12-18T09:04:59;41.77;;;19.40;;
11618;SDS011;5865;48.776;9.280;2022-12-18T09:07:57;43.23;;;20.33;;
11618;SDS011;5865;48.776;9.280;2022-12-18T09:10:51;43.60;;;19.63;;
11618;SDS011;5865;48.776;9.280;2022-12-18T09:13:39;41.37;;;19.03;;
11618;SDS011;5865;48.776;9.280;2022-12-18T09:19:51;44.37;;;19.73;;
11618;SDS011;5865;48.776;9.280;2022-12-18T09:29:40;45.80;;;20.93;;
11618;SDS011;5865;48.776;9.280;2022-12-18T09:36:14;44.97;;;23.20;;
11618;SDS011;5865;48.776;9.280;2022-12-18T09:39:38;46.13;;;22.00;;
11618;SDS011;5865;48.776;9.280;2022-12-18T09:43:15;45.97;;;21.97;;
11618;SDS011;5865;48.776;9.280;2022-12-18T09:51:22;39.57;;;20.23;;
11618;SDS011;5865;48.776;9.280;2022-12-18T09:54:11;44.80;;;21.40;;
11618;SDS011;5865;48.776;9.280;2022-12-18T09:57:02;42.70;;;21.60;;
11618;SDS011;5865;48.776;9.280;2022-12-18T10:06:35;41.83;;;19.30;;
11618;SDS011;5865;48.776;9.280;2022-12-18T10:09:27;42.53;;;21.13;;
11618;SDS011;5865;48.776;9.280;2022-12-18T10:12:01;41.10;;;19.50;;
11618;SDS011;5865;48.776;9.280;2022-12-18T10:14:40;40.20;;;19.50;;
11618;SDS011;5865;48.776;9.280;2022-12-18T10:17:17;41.90;;;18.70;;
11618;SDS011;5865;48.776;9.280;2022-12-18T10:23:42;38.87;;;19.50;;
11618;SDS011;5865;48.776;9.280;2022-12-18T10:26:54;50.47;;;20.30;;
11618;SDS011;5865;48.776;9.280;2022-12-18T10:29:37;45.60;;;22.77;;
11618;SDS011;5865;48.776;9.280;2022-12-18T10:32:17;42.37;;;19.77;;
11618;SDS011;5865;48.776;9.280;2022-12-18T10:35:33;45.27;;;20.07;;
11618;SDS011;5865;48.776;9.280;2022-12-18T10:38:31;35.07;;;18.93;;
11618;SDS011;5865;48.776;9.280;2022-12-18T10:44:43;41.87;;;20.40;;
11618;SDS011;5865;48.776;9.280;2022-12-18T10:48:01;40.70;;;20.00;;
11618;SDS011;5865;48.776;9.280;2022-12-18T10:51:07;40.67;;;19.80;;
11618;SDS011;5865;48.776;9.280;2022-12-18T10:53:41;39.77;;;20.20;;
11618;SDS011;5865;48.776;9.280;2022-12-18T10:56:09;37.30;;;19.87;;
11618;SDS011;5865;48.776;9.280;2022-12-18T10:58:36;41.23;;;20.67;;
11618;SDS011;5865;48.776;9.280;2022-12-18T11:01:07;38.73;;;19.67;;
11618;SDS011;5865;48.776;9.280;2022-12-18T11:03:37;40.43;;;20.53;;
11618;SDS011;5865;48.776;9.280;2022-12-18T11:06:06;37.90;;;19.93;;
11618;SDS011;5865;48.776;9.280;2022-12-18T11:08:35;38.50;;;20.77;;
11618;SDS011;5865;48.776;9.280;2022-12-18T11:11:02;37.50;;;20.90;;
11618;SDS011;5865;48.776;9.280;2022-12-18T11:13:30;41.67;;;21.83;;
11618;SDS011;5865;48.776;9.280;2022-12-18T11:15:58;40.07;;;20.33;;
11618;SDS011;5865;48.776;9.280;2022-12-18T11:18:28;39.60;;;19.70;;
11618;SDS011;5865;48.776;9.280;2022-12-18T11:20:57;37.13;;;20.33;;
11618;SDS011;5865;48.776;9.280;2022-12-18T11:23:26;41.97;;;21.97;;
11618;SDS011;5865;48.776;9.280;2022-12-18T11:25:54;36.83;;;21.37;;
11618;SDS011;5865;48.776;9.280;2022-12-18T11:28:28;42.60;;;20.17;;
11618;SDS011;5865;48.776;9.280;2022-12-18T11:34:01;42.07;;;20.60;;
11618;SDS011;5865;48.776;9.280;2022-12-18T11:36:32;36.00;;;19.17;;
11618;SDS011;5865;48.776;9.280;2022-12-18T11:39:08;36.30;;;20.03;;
11618;SDS011;5865;48.776;9.280;2022-12-18T11:41:44;39.23;;;20.03;;
11618;SDS011;5865;48.776;9.280;2022-12-18T11:44:43;40.27;;;20.03;;
11618;SDS011;5865;48.776;9.280;2022-12-18T11:47:18;40.23;;;21.13;;
11618;SDS011;5865;48.776;9.280;2022-12-18T11:49:58;40.93;;;22.97;;
11618;SDS011;5865;48.776;9.280;2022-12-18T11:52:28;39.20;;;20.90;;
11618;SDS011;5865;48.776;9.280;2022-12-18T11:55:05;40.73;;;21.17;;
11618;SDS011;5865;48.776;9.280;2022-12-18T11:57:39;40.07;;;21.57;;
11618;SDS011;5865;48.776;9.280;2022-12-18T12:00:16;42.03;;;21.50;;
11618;SDS011;5865;48.776;9.280;2022-12-18T12:02:52;38.63;;;20.03;;
11618;SDS011;5865;48.776;9.280;2022-12-18T12:05:44;37.87;;;20.43;;
11618;SDS011;5865;48.776;9.280;2022-12-18T12:08:18;41.67;;;21.07;;
11618;SDS011;5865;48.776;9.280;2022-12-18T12:10:56;39.50;;;21.03;;
11618;SDS011;5865;48.776;9.280;2022-12-18T12:13:32;39.40;;;20.23;;
11618;SDS011;5865;48.776;9.280;2022-12-18T12:16:11;40.13;;;20.50;;
11618;SDS011;5865;48.776;9.280;2022-12-18T12:18:54;41.07;;;20.57;;
11618;SDS011;5865;48.776;9.280;2022-12-18T12:21:36;40.83;;;20.80;;
11618;SDS011;5865;48.776;9.280;2022-12-18T12:24:13;38.97;;;20.90;;
11618;SDS011;5865;48.776;9.280;2022-12-18T12:26:55;37.53;;;19.97;;
11618;SDS011;5865;48.776;9.280;2022-12-18T12:29:33;40.90;;;21.07;;
11618;SDS011;5865;48.776;9.280;2022-12-18T12:32:12;59.77;;;31.13;;
11618;SDS011;5865;48.776;9.280;2022-12-18T12:34:55;43.60;;;21.60;;
11618;SDS011;5865;48.776;9.280;2022-12-18T12:37:36;42.43;;;21.60;;
11618;SDS011;5865;48.776;9.280;2022-12-18T12:40:10;39.47;;;21.27;;
11618;SDS011;5865;48.776;9.280;2022-12-18T12:42:41;38.57;;;20.37;;
11618;SDS011;5865;48.776;9.280;2022-12-18T12:45:33;43.13;;;23.43;;
11618;SDS011;5865;48.776;9.280;2022-12-18T12:48:04;39.63;;;20.87;;
11618;SDS011;5865;48.776;9.280;2022-12-18T12:50:36;36.20;;;21.13;;
11618;SDS011;5865;48.776;9.280;2022-12-18T12:53:07;37.33;;;20.17;;
11618;SDS011;5865;48.776;9.280;2022-12-18T13:03:22;40.27;;;20.23;;
11618;SDS011;5865;48.776;9.280;2022-12-18T13:05:56;39.73;;;20.60;;
11618;SDS011;5865;48.776;9.280;2022-12-18T13:08:29;38.77;;;21.10;;
11618;SDS011;5865;48.776;9.280;2022-12-18T13:10:58;34.77;;;19.23;;
11618;SDS011;5865;48.776;9.280;2022-12-18T13:16:24;34.07;;;19.17;;
11618;SDS011;5865;48.776;9.280;2022-12-18T13:18:53;37.80;;;20.67;;
11618;SDS011;5865;48.776;9.280;2022-12-18T13:21:23;36.33;;;20.23;;
11618;SDS011;5865;48.776;9.280;2022-12-18T13:23:54;38.87;;;21.27;;
11618;SDS011;5865;48.776;9.280;2022-12-18T13:26:29;37.23;;;20.20;;
11618;SDS011;5865;48.776;9.280;2022-12-18T13:28:58;38.40;;;22.50;;
11618;SDS011;5865;48.776;9.280;2022-12-18T13:34:25;37.30;;;21.40;;
11618;SDS011;5865;48.776;9.280;2022-12-18T13:36:55;39.60;;;21.23;;
11618;SDS011;5865;48.776;9.280;2022-12-18T13:39:30;37.93;;;20.40;;
11618;SDS011;5865;48.776;9.280;2022-12-18T13:45:39;36.73;;;20.50;;
11618;SDS011;5865;48.776;9.280;2022-12-18T13:48:15;40.93;;;21.60;;
11618;SDS011;5865;48.776;9.280;2022-12-18T13:50:47;39.03;;;20.40;;
11618;SDS011;5865;48.776;9.280;2022-12-18T13:53:19;44.80;;;21.53;;
11618;SDS011;5865;48.776;9.280;2022-12-18T13:55:50;39.97;;;20.40;;
11618;SDS011;5865;48.776;9.280;2022-12-18T13:58:17;41.87;;;21.37;;
11618;SDS011;5865;48.776;9.280;2022-12-18T14:00:44;39.50;;;21.20;;
11618;SDS011;5865;48.776;9.280;2022-12-18T14:03:16;38.23;;;21.90;;
11618;SDS011;5865;48.776;9.280;2022-12-18T14:05:46;39.67;;;20.80;;
11618;SDS011;5865;48.776;9.280;2022-12-18T14:08:20;37.27;;;20.40;;
11618;SDS011;5865;48.776;9.280;2022-12-18T14:10:48;38.67;;;20.97;;
11618;SDS011;5865;48.776;9.280;2022-12-18T14:13:20;36.97;;;20.20;;
11618;SDS011;5865;48.776;9.280;2022-12-18T14:15:50;37.70;;;19.20;;
11618;SDS011;5865;48.776;9.280;2022-12-18T14:18:19;33.83;;;19.87;;
11618;SDS011;5865;48.776;9.280;2022-12-18T14:20:49;38.27;;;20.30;;
11618;SDS011;5865;48.776;9.280;2022-12-18T14:23:28;36.07;;;18.87;;
11618;SDS011;5865;48.776;9.280;2022-12-18T14:25:58;37.93;;;20.23;;
11618;SDS011;5865;48.776;9.280;2022-12-18T14:28:25;37.40;;;20.63;;
11618;SDS011;5865;48.776;9.280;2022-12-18T14:30:53;38.10;;;20.43;;
11618;SDS011;5865;48.776;9.280;2022-12-18T14:33:22;35.73;;;20.57;;
11618;SDS011;5865;48.776;9.280;2022-12-18T14:35:54;36.57;;;20.97;;
11618;SDS011;5865;48.776;9.280;2022-12-18T14:38:24;37.20;;;20.70;;
11618;SDS011;5865;48.776;9.280;2022-12-18T14:40:57;35.37;;;19.90;;
11618;SDS011;5865;48.776;9.280;2022-12-18T14:43:26;37.53;;;20.93;;
11618;SDS011;5865;48.776;9.280;2022-12-18T14:45:54;41.53;;;20.70;;
11618;SDS011;5865;48.776;9.280;2022-12-18T14:48:23;38.57;;;20.63;;
11618;SDS011;5865;48.776;9.280;2022-12-18T14:51:03;41.27;;;21.53;;
11618;SDS011;5865;48.776;9.280;2022-12-18T14:53:36;37.60;;;19.47;;
11618;SDS011;5865;48.776;9.280;2022-12-18T14:58:50;43.27;;;21.37;;
11618;SDS011;5865;48.776;9.280;2022-12-18T15:01:21;37.67;;;20.17;;
11618;SDS011;5865;48.776;9.280;2022-12-18T15:03:50;34.50;;;19.87;;
11618;SDS011;5865;48.776;9.280;2022-12-18T15:06:24;37.70;;;19.43;;
11618;SDS011;5865;48.776;9.280;2022-12-18T15:08:57;36.03;;;19.50;;
11618;SDS011;5865;48.776;9.280;2022-12-18T15:11:27;37.93;;;20.03;;
11618;SDS011;5865;48.776;9.280;2022-12-18T15:16:51;38.53;;;19.60;;
11618;SDS011;5865;48.776;9.280;2022-12-18T15:19:20;42.03;;;20.80;;
11618;SDS011;5865;48.776;9.280;2022-12-18T15:21:48;39.40;;;20.37;;
11618;SDS011;5865;48.776;9.280;2022-12-18T15:24:16;41.90;;;20.70;;
11618;SDS011;5865;48.776;9.280;2022-12-18T15:26:54;40.57;;;20.30;;
11618;SDS011;5865;48.776;9.280;2022-12-18T15:29:22;44.33;;;21.60;;
11618;SDS011;5865;48.776;9.280;2022-12-18T15:34:44;43.73;;;21.30;;
11618;SDS011;5865;48.776;9.280;2022-12-18T15:37:12;50.70;;;23.60;;
11618;SDS011;5865;48.776;9.280;2022-12-18T15:39:39;44.87;;;22.83;;
11618;SDS011;5865;48.776;9.280;2022-12-18T15:42:08;49.73;;;22.50;;
11618;SDS011;5865;48.776;9.280;2022-12-18T15:44:53;43.53;;;22.43;;
11618;SDS011;5865;48.776;9.280;2022-12-18T15:47:20;49.60;;;23.77;;
11618;SDS011;5865;48.776;9.280;2022-12-18T15:49:47;44.40;;;22.40;;
11618;SDS011;5865;48.776;9.280;2022-12-18T15:52:14;52.50;;;27.17;;
11618;SDS011;5865;48.776;9.280;2022-12-18T15:54:50;52.50;;;25.63;;
11618;SDS011;5865;48.776;9.280;2022-12-18T15:57:36;70.57;;;32.23;;
11618;SDS011;5865;48.776;9.280;2022-12-18T16:00:03;54.83;;;26.27;;
11618;SDS011;5865;48.776;9.280;2022-12-18T16:02:31;52.50;;;25.77;;
11618;SDS011;5865;48.776;9.280;2022-12-18T16:04:58;49.33;;;24.13;;
11618;SDS011;5865;48.776;9.280;2022-12-18T16:07:25;44.73;;;23.67;;
11618;SDS011;5865;48.776;9.280;2022-12-18T16:09:52;51.10;;;25.43;;
11618;SDS011;5865;48.776;9.280;2022-12-18T16:12:20;48.77;;;23.83;;
11618;SDS011;5865;48.776;9.280;2022-12-18T16:14:49;47.17;;;23.73;;
11618;SDS011;5865;48.776;9.280;2022-12-18T16:17:16;46.83;;;23.07;;
11618;SDS011;5865;48.776;9.280;2022-12-18T16:19:43;48.87;;;22.67;;
11618;SDS011;5865;48.776;9.280;2022-12-18T16:22:20;48.13;;;22.97;;
11618;SDS011;5865;48.776;9.280;2022-12-18T16:24:48;48.90;;;24.50;;
11618;SDS011;5865;48.776;9.280;2022-12-18T16:27:16;50.23;;;24.77;;
11618;SDS011;5865;48.776;9.280;2022-12-18T16:29:43;44.93;;;22.73;;
11618;SDS011;5865;48.776;9.280;2022-12-18T16:32:13;50.60;;;23.53;;
11618;SDS011;5865;48.776;9.280;2022-12-18T16:34:41;45.53;;;22.87;;
11618;SDS011;5865;48.776;9.280;2022-12-18T16:37:10;48.17;;;22.93;;
11618;SDS011;5865;48.776;9.280;2022-12-18T16:39:39;49.07;;;23.70;;
11618;SDS011;5865;48.776;9.280;2022-12-18T16:42:09;49.57;;;23.57;;
11618;SDS011;5865;48.776;9.280;2022-12-18T16:44:39;49.00;;;23.03;;
11618;SDS011;5865;48.776;9.280;2022-12-18T16:47:06;49.03;;;23.27;;
11618;SDS011;5865;48.776;9.280;2022-12-18T16:49:35;43.93;;;21.83;;
11618;SDS011;5865;48.776;9.280;2022-12-18T16:52:02;50.07;;;22.30;;
11618;SDS011;5865;48.776;9.280;2022-12-18T16:54:29;44.53;;;21.80;;
11618;SDS011;5865;48.776;9.280;2022-12-18T16:56:57;50.23;;;23.53;;
11618;SDS011;5865;48.776;9.280;2022-12-18T16:59:25;45.17;;;21.87;;
11618;SDS011;5865;48.776;9.280;2022-12-18T17:01:52;41.07;;;22.00;;
11618;SDS011;5865;48.776;9.280;2022-12-18T17:04:19;48.73;;;22.40;;
11618;SDS011;5865;48.776;9.280;2022-12-18T17:06:48;44.80;;;22.20;;
11618;SDS011;5865;48.776;9.280;2022-12-18T17:09:16;51.00;;;22.90;;
11618;SDS011;5865;48.776;9.280;2022-12-18T17:11:46;45.47;;;22.07;;
11618;SDS011;5865;48.776;9.280;2022-12-18T17:14:13;48.20;;;22.50;;
11618;SDS011;5865;48.776;9.280;2022-12-18T17:16:42;43.73;;;22.57;;
11618;SDS011;5865;48.776;9.280;2022-12-18T17:19:09;49.70;;;24.13;;
11618;SDS011;5865;48.776;9.280;2022-12-18T17:21:36;55.97;;;25.77;;
11618;SDS011;5865;48.776;9.280;2022-12-18T17:24:05;48.10;;;23.87;;
11618;SDS011;5865;48.776;9.280;2022-12-18T17:26:32;48.17;;;23.03;;
11618;SDS011;5865;48.776;9.280;2022-12-18T17:28:59;43.83;;;21.83;;
11618;SDS011;5865;48.776;9.280;2022-12-18T17:31:27;39.70;;;20.87;;
11618;SDS011;5865;48.776;9.280;2022-12-18T17:33:56;45.57;;;20.97;;
11618;SDS011;5865;48.776;9.280;2022-12-18T17:36:23;46.60;;;22.27;;
11618;SDS011;5865;48.776;9.280;2022-12-18T17:38:53;44.10;;;21.80;;
11618;SDS011;5865;48.776;9.280;2022-12-18T17:41:23;43.27;;;20.30;;
11618;SDS011;5865;48.776;9.280;2022-12-18T17:43:51;43.20;;;19.83;;
11618;SDS011;5865;48.776;9.280;2022-12-18T17:46:19;41.80;;;20.33;;
11618;SDS011;5865;48.776;9.280;2022-12-18T17:48:46;36.83;;;19.30;;